METAR Data

Data at: 1805 UTC 21 Nov 2018

METAR for:KGHG (Marshfield Muni, MA, US)
Text:KGHG 211755Z AUTO 23009G16KT 10SM CLR 05/M02 A2988 RMK AO2
Temperature: 5.0°C ( 41°F)
Dewpoint: -2.0°C ( 28°F) [RH = 60%]
Pressure (altimeter):29.88 inches Hg (1011.9 mb)
Winds:from the SW (230 degrees) at 10 MPH (9 knots; 4.6 m/s) gusting to 18 MPH (16 knots; 8.2 m/s)
Visibility:10 or more sm (16+ km)
Ceiling:at least 12,000 feet AGL
Clouds:sky clear below 12,000 feet AGL
QC Flag:automated observation with no human augmentation